Time;durP1;ratioP1;P1;durP2;ratioP2;P2;SDS_P1;SDS_P2;PMS_P1;PMS_P2;Temp;Humidity;BMP_temperature;BMP_pressure;BME280_temperature;BME280_humidity;BME280_pressure;Samples;Min_cycle;Max_cycle;Signal;HPM_P1;HPM_P2
2022/05/13 00:00:53;;;;;;;7.13;5.63;;;16.60;99.90;;;;;;5052367;28;20021;-80
2022/05/13 00:03:19;;;;;;;6.75;5.65;;;16.50;99.90;;;;;;5052382;28;20033;-80
2022/05/13 00:05:44;;;;;;;5.65;5.07;;;16.40;99.90;;;;;;5051246;28;20075;-80
2022/05/13 00:08:10;;;;;;;10.02;5.00;;;16.40;99.90;;;;;;5051136;28;20052;-80
2022/05/13 00:10:36;;;;;;;6.35;5.68;;;16.40;99.90;;;;;;5052500;28;20491;-80
2022/05/13 00:13:03;;;;;;;7.25;5.57;;;16.40;99.90;;;;;;5051237;28;20037;-80
2022/05/13 00:15:29;;;;;;;6.22;4.82;;;16.30;99.90;;;;;;5052221;28;20021;-81
2022/05/13 00:17:55;;;;;;;6.82;5.38;;;16.30;99.90;;;;;;5051092;28;20036;-82
2022/05/13 00:20:21;;;;;;;6.65;5.28;;;16.20;99.90;;;;;;5051221;28;20040;-81
2022/05/13 00:22:52;;;;;;;7.35;5.57;;;16.10;99.90;;;;;;5052404;28;20021;-81
2022/05/13 00:25:24;;;;;;;7.85;5.90;;;16.10;99.90;;;;;;5051421;28;20025;-80
2022/05/13 00:27:53;;;;;;;10.07;5.53;;;15.50;99.90;;;;;;5050950;28;20017;-81
2022/05/13 00:30:19;;;;;;;8.30;5.53;;;16.10;99.90;;;;;;5052244;28;20104;-81
2022/05/13 00:32:45;;;;;;;7.28;5.47;;;16.10;99.90;;;;;;5051235;28;20088;-80
2022/05/13 00:35:11;;;;;;;6.20;5.60;;;16.10;99.90;;;;;;5050356;28;20037;-81
2022/05/13 00:37:36;;;;;;;7.55;5.50;;;16.10;99.90;;;;;;5050549;28;20124;-81
2022/05/13 00:40:03;;;;;;;9.95;5.82;;;16.10;99.90;;;;;;5050688;28;20567;-80
2022/05/13 00:42:29;;;;;;;7.38;6.00;;;16.20;99.90;;;;;;5051812;28;20032;-80
2022/05/13 00:44:57;;;;;;;7.70;6.88;;;16.20;99.90;;;;;;5051870;28;20024;-80
2022/05/13 00:47:23;;;;;;;6.95;5.45;;;16.20;99.90;;;;;;5050493;28;20624;-80
2022/05/13 00:49:49;;;;;;;9.73;6.32;;;16.20;99.90;;;;;;5050193;28;20029;-80
2022/05/13 00:52:15;;;;;;;8.18;6.03;;;16.20;99.90;;;;;;5050333;28;20049;-80
2022/05/13 00:54:42;;;;;;;9.88;6.07;;;16.20;99.90;;;;;;5051874;28;20025;-80
2022/05/13 00:57:11;;;;;;;8.90;6.55;;;16.20;99.90;;;;;;5051508;28;21134;-80
2022/05/13 00:59:39;;;;;;;9.18;5.40;;;16.20;99.90;;;;;;5050475;28;20120;-80
2022/05/13 01:02:05;;;;;;;7.93;6.07;;;16.20;99.90;;;;;;5050476;28;20032;-80
2022/05/13 01:04:33;;;;;;;8.18;5.28;;;16.20;99.90;;;;;;5050509;28;20099;-80
2022/05/13 01:07:03;;;;;;;10.38;6.00;;;16.30;99.90;;;;;;5051614;28;20036;-80
2022/05/13 01:09:34;;;;;;;8.10;6.25;;;16.30;99.90;;;;;;5050533;28;20017;-79
2022/05/13 01:12:04;;;;;;;7.65;6.57;;;16.30;99.90;;;;;;5050420;28;20025;-79
2022/05/13 01:14:35;;;;;;;10.20;6.50;;;16.30;99.90;;;;;;5051882;28;20025;-80
2022/05/13 01:20:29;;;;;;;6.47;5.63;;;16.20;99.90;;;;;;4990493;28;20035;-80
2022/05/13 01:23:00;;;;;;;9.75;5.88;;;16.20;99.90;;;;;;5048343;28;20040;-80
2022/05/13 01:25:27;;;;;;;6.82;5.72;;;16.10;99.90;;;;;;5051700;28;20021;-80
2022/05/13 01:27:55;;;;;;;9.23;5.53;;;16.10;99.90;;;;;;5050157;28;20116;-80
2022/05/13 01:30:25;;;;;;;8.93;5.63;;;16.00;99.90;;;;;;5050173;28;20025;-80
2022/05/13 01:32:51;;;;;;;8.73;6.43;;;16.00;99.90;;;;;;5051402;28;20033;-80
2022/05/13 01:35:17;;;;;;;5.97;5.43;;;15.90;99.90;;;;;;5051518;28;20070;-80
2022/05/13 01:37:43;;;;;;;7.93;5.97;;;15.80;99.90;;;;;;5049897;28;20033;-80
2022/05/13 01:40:09;;;;;;;8.68;5.30;;;15.80;99.90;;;;;;5051244;28;20032;-80
2022/05/13 01:42:35;;;;;;;7.63;6.15;;;15.80;99.90;;;;;;5051544;28;20025;-79
2022/05/13 01:45:02;;;;;;;9.13;5.60;;;15.80;99.90;;;;;;5051083;28;20032;-79
2022/05/13 01:47:29;;;;;;;6.82;5.50;;;15.80;99.90;;;;;;5053788;28;20025;-80
2022/05/13 01:49:56;;;;;;;8.30;6.53;;;15.70;99.90;;;;;;5055027;28;20531;-80
2022/05/13 01:52:22;;;;;;;8.18;6.78;;;15.80;99.90;;;;;;5055068;28;20087;-80
2022/05/13 01:54:48;;;;;;;9.90;7.85;;;15.80;99.90;;;;;;5054970;28;20468;-80
2022/05/13 01:57:14;;;;;;;9.35;6.47;;;15.80;99.90;;;;;;5054731;28;20036;-80
2022/05/13 01:59:39;;;;;;;10.60;7.85;;;15.90;99.90;;;;;;5054952;28;20115;-80
2022/05/13 02:02:05;;;;;;;7.57;6.88;;;15.80;99.90;;;;;;5053577;28;20380;-80
2022/05/13 02:04:31;;;;;;;8.93;7.25;;;15.90;99.90;;;;;;5054832;28;20115;-80
2022/05/13 02:06:56;;;;;;;9.77;7.30;;;15.90;99.90;;;;;;5053521;28;20036;-80
2022/05/13 02:09:22;;;;;;;9.30;7.18;;;15.90;99.90;;;;;;5053545;28;20035;-80
2022/05/13 02:11:48;;;;;;;12.32;8.20;;;15.90;99.90;;;;;;5054534;28;20037;-80
2022/05/13 02:14:14;;;;;;;8.15;7.35;;;15.90;99.90;;;;;;5053318;28;20025;-80
2022/05/13 02:16:40;;;;;;;10.13;7.43;;;15.90;99.90;;;;;;5053273;28;20384;-79
2022/05/13 02:19:06;;;;;;;10.13;8.48;;;15.90;99.90;;;;;;5054779;28;20029;-79
2022/05/13 02:21:32;;;;;;;10.77;8.50;;;15.90;99.90;;;;;;5054696;28;20017;-80
2022/05/13 02:23:57;;;;;;;11.02;8.35;;;15.90;99.90;;;;;;5054694;28;20064;-79
2022/05/13 02:26:23;;;;;;;9.32;8.32;;;15.90;99.90;;;;;;5054534;28;20055;-79
2022/05/13 02:28:49;;;;;;;9.60;8.60;;;15.90;99.90;;;;;;5054546;28;20070;-80
2022/05/13 02:31:15;;;;;;;8.27;7.35;;;15.90;99.90;;;;;;5054437;28;20424;-80
2022/05/13 02:33:42;;;;;;;10.15;7.70;;;15.90;99.90;;;;;;5053035;28;20101;-80
2022/05/13 02:36:10;;;;;;;10.45;7.80;;;15.90;99.90;;;;;;5054000;28;20443;-79
2022/05/13 02:38:36;;;;;;;8.35;7.57;;;15.90;99.90;;;;;;5054312;28;20021;-80
2022/05/13 02:41:11;;;;;;;9.48;8.50;;;15.90;99.90;;;;;;5054144;28;20022;-80
2022/05/13 02:43:37;;;;;;;14.10;8.73;;;16.00;99.90;;;;;;5053185;28;20367;-79
2022/05/13 02:46:03;;;;;;;8.48;7.53;;;16.00;99.90;;;;;;5053967;28;20063;-79
2022/05/13 02:48:29;;;;;;;10.50;9.20;;;16.00;99.90;;;;;;5054091;28;20476;-80
2022/05/13 02:50:55;;;;;;;9.98;8.43;;;16.10;99.90;;;;;;5052673;28;20445;-80
2022/05/13 02:53:21;;;;;;;10.13;7.75;;;16.10;99.90;;;;;;5052931;28;20029;-80
2022/05/13 02:55:47;;;;;;;10.02;7.72;;;16.10;99.90;;;;;;5053429;28;20082;-79
2022/05/13 02:58:13;;;;;;;16.75;8.20;;;16.10;99.90;;;;;;5053754;28;20134;-80
2022/05/13 03:00:39;;;;;;;12.38;8.32;;;16.20;99.90;;;;;;5052476;28;20148;-79
2022/05/13 03:03:08;;;;;;;9.27;7.88;;;16.10;99.90;;;;;;5052455;28;20549;-79
2022/05/13 03:05:34;;;;;;;10.02;7.60;;;16.10;99.90;;;;;;5052328;28;20032;-79
2022/05/13 03:08:01;;;;;;;8.93;8.05;;;16.20;99.90;;;;;;5053651;28;20444;-79
2022/05/13 03:10:32;;;;;;;10.68;9.23;;;16.10;99.90;;;;;;5053639;28;20380;-79
2022/05/13 03:12:58;;;;;;;11.30;8.35;;;16.20;99.90;;;;;;5052318;28;20578;-79
2022/05/13 03:15:25;;;;;;;13.43;8.63;;;16.10;99.90;;;;;;5053661;28;20071;-79
2022/05/13 03:17:52;;;;;;;8.90;7.72;;;16.20;99.90;;;;;;5051930;28;20094;-79
2022/05/13 03:20:20;;;;;;;9.35;7.45;;;16.20;99.90;;;;;;5052269;28;20094;-79
2022/05/13 03:22:46;;;;;;;9.30;7.90;;;16.10;99.90;;;;;;5052132;28;20078;-79
2022/05/13 03:25:13;;;;;;;11.40;9.60;;;16.10;99.90;;;;;;5053358;28;20021;-79
2022/05/13 03:27:39;;;;;;;11.18;9.13;;;16.10;99.90;;;;;;5053320;28;20029;-80
2022/05/13 03:30:06;;;;;;;10.82;8.52;;;16.10;99.90;;;;;;5053182;28;20032;-79
2022/05/13 03:32:32;;;;;;;12.60;8.38;;;16.10;99.90;;;;;;5053008;28;20101;-79
2022/05/13 03:34:58;;;;;;;10.63;8.10;;;16.10;99.90;;;;;;5053112;28;20021;-79
2022/05/13 03:37:23;;;;;;;11.13;8.05;;;16.10;99.90;;;;;;5053009;28;20452;-79
2022/05/13 03:39:49;;;;;;;9.32;8.13;;;16.20;99.90;;;;;;5053115;28;20116;-80
2022/05/13 03:42:15;;;;;;;19.02;8.32;;;16.10;99.90;;;;;;5052890;28;20107;-81
2022/05/13 03:44:42;;;;;;;9.35;7.03;;;16.20;99.90;;;;;;5053207;28;20029;-80
2022/05/13 03:47:07;;;;;;;8.63;7.82;;;16.20;99.90;;;;;;5051834;28;20029;-80
2022/05/13 03:49:33;;;;;;;12.98;7.65;;;16.20;99.90;;;;;;5052845;28;20082;-80
2022/05/13 03:51:59;;;;;;;11.68;7.95;;;16.20;99.90;;;;;;5052966;28;20084;-80
2022/05/13 03:54:25;;;;;;;7.82;7.13;;;16.20;99.90;;;;;;5052789;28;20025;-80
2022/05/13 03:56:51;;;;;;;10.45;7.95;;;16.20;99.90;;;;;;5052870;28;20068;-80
2022/05/13 03:59:16;;;;;;;6.90;6.28;;;16.20;99.90;;;;;;5052788;28;20422;-80
2022/05/13 04:01:42;;;;;;;9.15;6.78;;;16.20;99.90;;;;;;5052721;28;20033;-80
2022/05/13 04:04:08;;;;;;;8.00;6.90;;;16.20;99.90;;;;;;5052812;28;20082;-79
2022/05/13 04:09:17;;;;;;;10.13;8.02;;;16.20;99.90;;;;;;5052048;28;20036;-79
2022/05/13 04:16:04;;;;;;;10.15;8.02;;;16.20;99.90;;;;;;5052513;28;20029;-78
2022/05/13 04:17:13;;;;;;;9.05;7.53;;;16.30;99.90;;;;;;5052156;28;20094;-79
2022/05/13 04:19:39;;;;;;;13.38;7.68;;;16.30;99.90;;;;;;5051073;28;20037;-79
2022/05/13 04:22:05;;;;;;;11.25;7.57;;;16.30;99.90;;;;;;5052295;28;20028;-79
2022/05/13 04:24:30;;;;;;;8.60;7.70;;;16.40;99.90;;;;;;5052456;28;20033;-79
2022/05/13 04:26:56;;;;;;;7.82;7.10;;;16.40;99.90;;;;;;5050926;28;20036;-79
2022/05/13 04:29:22;;;;;;;8.73;6.72;;;16.40;99.90;;;;;;5050715;28;20025;-79
2022/05/13 04:31:47;;;;;;;10.13;7.07;;;16.40;99.90;;;;;;5052211;28;20039;-79
2022/05/13 04:34:13;;;;;;;8.82;7.88;;;16.50;99.90;;;;;;5049653;28;20017;-78
2022/05/13 04:36:40;;;;;;;9.20;7.00;;;16.50;99.90;;;;;;5053864;28;20122;-83
2022/05/13 04:39:06;;;;;;;6.47;5.72;;;16.60;99.90;;;;;;5052406;28;20037;-81
2022/05/13 04:44:16;;;;;;;5.95;4.88;;;16.80;99.90;;;;;;5055895;28;20094;-82
2022/05/13 04:46:41;;;;;;;10.40;6.28;;;16.80;99.90;;;;;;5055558;28;20464;-78
2022/05/13 04:49:07;;;;;;;6.18;5.47;;;16.80;99.90;;;;;;5052114;28;20023;-78
2022/05/13 04:51:34;;;;;;;11.93;7.30;;;16.90;99.90;;;;;;5051895;28;20095;-78
2022/05/13 04:54:00;;;;;;;10.13;7.13;;;16.90;99.90;;;;;;5052271;28;20078;-78
2022/05/13 04:56:28;;;;;;;7.45;6.65;;;16.90;99.90;;;;;;5051902;28;20036;-78
2022/05/13 04:58:53;;;;;;;11.00;7.47;;;17.00;99.90;;;;;;5052032;28;20025;-78
2022/05/13 05:01:21;;;;;;;8.05;7.22;;;17.00;99.90;;;;;;5052251;28;20074;-80
2022/05/13 05:03:47;;;;;;;8.40;7.43;;;17.10;99.90;;;;;;5050779;28;20024;-78
2022/05/13 05:06:14;;;;;;;10.80;8.73;;;17.20;99.90;;;;;;5051932;28;20025;-78
2022/05/13 05:08:41;;;;;;;10.73;7.35;;;17.30;99.90;;;;;;5052045;28;20044;-78
2022/05/13 05:11:08;;;;;;;11.13;8.10;;;17.20;99.90;;;;;;5052201;28;20065;-78
2022/05/13 05:13:37;;;;;;;10.02;8.20;;;17.30;99.90;;;;;;5052042;28;20082;-78
2022/05/13 05:16:05;;;;;;;10.73;8.07;;;17.40;99.90;;;;;;5051853;28;20025;-79
2022/05/13 05:18:31;;;;;;;9.57;7.47;;;17.40;99.90;;;;;;5050846;28;20040;-78
2022/05/13 05:20:57;;;;;;;9.52;6.82;;;17.40;99.90;;;;;;5056139;28;20048;-78
2022/05/13 05:23:27;;;;;;;8.60;7.03;;;17.50;99.90;;;;;;5056017;28;20060;-78
2022/05/13 05:25:53;;;;;;;12.15;8.32;;;17.50;99.90;;;;;;5055807;28;20456;-81
2022/05/13 05:28:19;;;;;;;9.65;6.90;;;17.60;99.90;;;;;;5054599;28;20033;-81
2022/05/13 05:30:45;;;;;;;9.40;8.30;;;17.60;99.90;;;;;;5054596;28;20086;-81
2022/05/13 05:33:11;;;;;;;9.15;8.13;;;17.60;99.90;;;;;;5054464;28;20025;-80
2022/05/13 05:35:37;;;;;;;8.25;7.15;;;17.70;99.90;;;;;;5056450;28;20486;-81
2022/05/13 05:38:03;;;;;;;9.82;7.45;;;17.80;99.90;;;;;;5054498;28;20120;-76
2022/05/13 05:40:30;;;;;;;10.73;7.75;;;17.80;99.90;;;;;;5055860;28;20021;-79
2022/05/13 05:42:56;;;;;;;16.45;7.82;;;17.90;99.90;;;;;;5054434;28;20017;-78
2022/05/13 05:45:23;;;;;;;11.60;8.82;;;17.80;99.90;;;;;;5054502;28;20421;-82
2022/05/13 05:47:49;;;;;;;12.32;7.65;;;17.90;99.90;;;;;;5055616;28;20032;-80
2022/05/13 05:50:18;;;;;;;14.02;7.85;;;17.90;99.90;;;;;;5055666;28;20387;-80
2022/05/13 05:52:45;;;;;;;9.13;6.82;;;18.00;99.90;;;;;;5055913;28;20087;-80
2022/05/13 05:58:00;;;;;;;6.43;5.82;;;18.20;99.90;;;;;;5055303;28;20392;-79
2022/05/13 06:00:27;;;;;;;8.13;6.65;;;18.30;99.90;;;;;;5054072;28;20028;-79
2022/05/13 06:02:53;;;;;;;6.40;5.80;;;18.30;99.90;;;;;;5053911;28;20346;-80
2022/05/13 06:05:19;;;;;;;8.75;7.00;;;18.40;99.90;;;;;;5053219;28;20071;-79
2022/05/13 06:07:46;;;;;;;8.70;6.85;;;18.50;99.90;;;;;;5052916;28;20438;-79
2022/05/13 06:10:12;;;;;;;7.45;6.63;;;18.70;99.90;;;;;;5053156;28;20025;-79
2022/05/13 06:12:38;;;;;;;8.23;6.22;;;18.80;99.90;;;;;;5066868;28;20028;-78
2022/05/13 06:15:04;;;;;;;9.18;6.35;;;;;;;;;;5074849;28;20082;-78
2022/05/13 06:17:30;;;;;;;9.70;6.55;;;19.30;99.90;;;;;;5074681;28;20036;-78
2022/05/13 06:19:55;;;;;;;6.53;5.93;;;19.70;99.90;;;;;;5072874;28;20512;-78
2022/05/13 06:22:21;;;;;;;10.40;5.53;;;19.90;99.90;;;;;;5074570;28;20028;-79
2022/05/13 06:24:47;;;;;;;5.55;4.95;;;20.10;99.90;;;;;;5073098;28;20029;-79
2022/05/13 06:27:13;;;;;;;9.73;6.57;;;20.10;99.90;;;;;;5074419;28;20032;-78
2022/05/13 06:29:38;;;;;;;10.38;5.20;;;20.10;99.90;;;;;;5073095;28;20081;-79
2022/05/13 06:32:05;;;;;;;9.00;4.93;;;20.10;99.90;;;;;;5073670;28;20371;-79
2022/05/13 06:34:30;;;;;;;6.18;5.57;;;20.10;99.90;;;;;;5074433;28;20131;-78
2022/05/13 06:36:56;;;;;;;5.65;5.05;;;20.20;99.90;;;;;;5074299;28;20469;-78
2022/05/13 06:39:21;;;;;;;9.45;6.18;;;20.20;99.90;;;;;;5072710;28;20352;-78
2022/05/13 06:41:47;;;;;;;8.70;5.60;;;20.20;99.90;;;;;;5073371;28;20352;-78
2022/05/13 06:44:15;;;;;;;5.80;5.10;;;20.20;99.90;;;;;;5074211;28;20044;-79
2022/05/13 06:46:41;;;;;;;5.35;4.82;;;20.20;99.90;;;;;;5072912;28;20081;-78
2022/05/13 06:49:08;;;;;;;5.22;4.72;;;20.20;99.90;;;;;;5072753;28;20119;-78
2022/05/13 06:51:34;;;;;;;5.47;4.97;;;20.20;99.90;;;;;;5074081;28;20047;-79
2022/05/13 06:54:03;;;;;;;6.90;4.75;;;20.20;99.90;;;;;;5074197;28;20026;-78
2022/05/13 06:56:35;;;;;;;6.03;5.00;;;20.40;99.90;;;;;;5072610;28;20032;-78
2022/05/13 06:59:02;;;;;;;6.25;4.78;;;20.40;99.90;;;;;;5074115;28;20036;-78
2022/05/13 07:01:28;;;;;;;7.65;5.45;;;20.60;99.90;;;;;;5072744;28;20017;-78
2022/05/13 07:03:54;;;;;;;9.18;5.68;;;20.70;99.90;;;;;;5074121;28;20042;-79
2022/05/13 07:06:20;;;;;;;6.60;4.28;;;20.80;99.90;;;;;;5073922;28;20013;-78
2022/05/13 07:08:46;;;;;;;5.20;4.28;;;20.80;99.90;;;;;;5072459;28;20555;-79
2022/05/13 07:11:12;;;;;;;7.75;4.95;;;20.80;99.90;;;;;;5073890;28;20027;-78
2022/05/13 07:13:38;;;;;;;6.55;4.35;;;20.80;99.90;;;;;;5073847;28;20028;-78
2022/05/13 07:16:04;;;;;;;6.07;4.88;;;20.80;99.90;;;;;;5073697;28;20079;-78
2022/05/13 07:18:30;;;;;;;5.15;4.50;;;20.80;99.90;;;;;;5073655;28;20460;-78
2022/05/13 07:20:56;;;;;;;4.90;4.45;;;20.90;99.90;;;;;;5073686;28;20027;-78
2022/05/13 07:23:21;;;;;;;6.00;5.20;;;20.90;99.90;;;;;;5073615;28;20047;-78
2022/05/13 07:25:47;;;;;;;4.70;4.30;;;21.00;99.90;;;;;;5072191;28;20063;-78
2022/05/13 07:28:13;;;;;;;6.15;4.60;;;21.00;99.90;;;;;;5073538;28;20444;-79
2022/05/13 07:30:39;;;;;;;5.75;5.25;;;21.10;99.90;;;;;;5073355;28;20040;-78
2022/05/13 07:33:05;;;;;;;4.95;4.55;;;21.10;99.90;;;;;;5072095;28;20085;-78
2022/05/13 07:35:31;;;;;;;5.00;4.55;;;21.10;99.90;;;;;;5072078;28;20025;-78
2022/05/13 07:37:57;;;;;;;5.38;4.88;;;21.10;99.90;;;;;;5073213;28;20040;-77
2022/05/13 07:43:07;;;;;;;5.78;3.83;;;21.10;99.90;;;;;;5072275;28;20078;-79
2022/05/13 07:45:34;;;;;;;4.30;3.90;;;21.20;99.90;;;;;;5073196;28;20426;-78
2022/05/13 07:48:01;;;;;;;4.55;3.80;;;21.20;99.90;;;;;;5071656;28;20024;-78
2022/05/13 07:50:28;;;;;;;5.68;3.58;;;21.30;99.90;;;;;;5071612;28;20071;-79
2022/05/13 07:52:55;;;;;;;4.05;3.58;;;21.30;99.90;;;;;;5073068;28;20025;-78
2022/05/13 07:55:20;;;;;;;3.95;3.55;;;21.30;99.90;;;;;;5072812;28;20483;-78
2022/05/13 07:57:47;;;;;;;4.28;3.88;;;21.30;99.90;;;;;;5072659;28;20033;-79
2022/05/13 08:00:25;;;;;;;4.38;3.67;;;21.30;99.90;;;;;;5071541;28;20020;-79
2022/05/13 08:02:52;;;;;;;5.30;3.08;;;21.30;99.90;;;;;;5072812;28;20482;-79
2022/05/13 08:05:17;;;;;;;5.13;3.20;;;21.30;99.90;;;;;;5071505;28;20111;-78
2022/05/13 08:07:44;;;;;;;10.55;3.80;;;21.30;99.90;;;;;;5072674;28;20127;-79
2022/05/13 08:10:10;;;;;;;6.10;3.38;;;21.20;99.90;;;;;;5071474;28;20029;-79
2022/05/13 08:12:36;;;;;;;4.15;3.70;;;21.20;99.90;;;;;;5071459;28;20181;-78
2022/05/13 08:15:02;;;;;;;4.43;4.03;;;21.10;99.90;;;;;;5072431;28;20099;-78
2022/05/13 08:17:35;;;;;;;3.85;3.55;;;21.10;99.90;;;;;;5071267;28;20183;-78
2022/05/13 08:20:01;;;;;;;3.47;3.17;;;21.20;99.80;;;;;;5070789;28;20499;-78
2022/05/13 08:22:27;;;;;;;4.82;3.75;;;21.20;99.10;;;;;;5070542;28;20042;-78
2022/05/13 08:24:53;;;;;;;3.72;3.42;;;21.20;99.90;;;;;;5070990;28;20111;-79
2022/05/13 08:27:18;;;;;;;5.28;3.15;;;21.20;98.90;;;;;;5072117;28;20459;-78
2022/05/13 08:29:44;;;;;;;3.75;3.35;;;21.30;98.90;;;;;;5072369;28;20031;-78
2022/05/13 08:32:10;;;;;;;4.28;3.53;;;21.30;98.60;;;;;;5070775;28;20078;-78
2022/05/13 08:34:35;;;;;;;4.15;3.60;;;21.30;98.80;;;;;;5070905;28;20460;-79
2022/05/13 08:37:01;;;;;;;6.63;3.08;;;21.40;97.40;;;;;;5071826;28;20040;-78
2022/05/13 08:39:27;;;;;;;4.18;3.40;;;21.40;97.40;;;;;;5072144;28;20055;-79
2022/05/13 08:42:12;;;;;;;3.92;3.63;;;21.40;97.50;;;;;;5070873;28;20019;-77
2022/05/13 08:44:38;;;;;;;4.15;3.20;;;21.30;98.30;;;;;;5072174;28;20032;-77
2022/05/13 08:47:16;;;;;;;4.25;3.70;;;21.30;98.30;;;;;;5072066;28;20074;-76
2022/05/13 08:50:08;;;;;;;3.70;3.40;;;21.30;98.00;;;;;;5070892;28;20040;-76
2022/05/13 08:55:31;;;;;;;4.75;4.07;;;21.30;99.30;;;;;;5071833;28;20475;-75
2022/05/13 08:57:59;;;;;;;6.38;5.30;;;21.30;99.90;;;;;;5070816;28;20067;-76
2022/05/13 09:00:39;;;;;;;8.15;5.57;;;21.30;99.60;;;;;;5072153;28;20097;-76
2022/05/13 09:03:26;;;;;;;6.13;5.05;;;21.30;99.90;;;;;;5072087;28;20028;-75
2022/05/13 09:06:01;;;;;;;8.43;5.70;;;21.30;99.90;;;;;;5072043;28;20024;-76
2022/05/13 09:08:27;;;;;;;5.68;4.50;;;21.40;99.90;;;;;;5070542;28;20073;-75
2022/05/13 09:11:19;;;;;;;7.13;4.63;;;21.50;99.90;;;;;;5071992;28;20032;-74
2022/05/13 09:14:09;;;;;;;8.80;4.97;;;21.50;99.90;;;;;;5071962;28;20063;-76
2022/05/13 09:16:41;;;;;;;10.32;4.80;;;21.50;99.90;;;;;;5071714;28;20055;-75
2022/05/13 09:19:14;;;;;;;5.78;5.25;;;21.50;99.90;;;;;;5070469;28;20435;-75
2022/05/13 09:21:44;;;;;;;6.82;5.35;;;21.50;99.90;;;;;;5071859;28;20017;-75
2022/05/13 09:24:11;;;;;;;6.00;4.75;;;21.50;99.90;;;;;;5071449;28;20020;-76
2022/05/13 09:26:39;;;;;;;7.55;5.22;;;21.50;99.90;;;;;;5071423;28;20410;-76
2022/05/13 09:29:23;;;;;;;8.15;5.05;;;21.60;99.90;;;;;;5071626;28;20101;-77
2022/05/13 09:31:54;;;;;;;4.78;4.28;;;21.60;99.90;;;;;;5071933;28;20056;-78
2022/05/13 09:34:35;;;;;;;6.18;4.03;;;21.70;99.40;;;;;;5071571;28;20027;-75
2022/05/13 09:37:17;;;;;;;5.13;4.63;;;21.80;99.50;;;;;;5071467;28;20025;-76
2022/05/13 09:39:44;;;;;;;4.55;4.15;;;21.80;97.80;;;;;;5071654;28;20016;-74
2022/05/13 09:42:18;;;;;;;4.50;4.10;;;21.80;98.50;;;;;;5071488;28;20027;-75
2022/05/13 09:44:45;;;;;;;4.28;3.88;;;21.90;98.50;;;;;;5071253;28;20119;-75
2022/05/13 09:47:20;;;;;;;4.95;3.72;;;22.00;98.10;;;;;;5071360;28;20020;-75
2022/05/13 09:49:49;;;;;;;;;;;22.10;98.40;;;;;;5072085;28;20460;-75
2022/05/13 09:52:31;;;;;;;5.55;3.90;;;22.10;97.80;;;;;;5071241;28;19996;-77
2022/05/13 09:55:13;;;;;;;4.15;3.67;;;22.10;96.80;;;;;;5071813;28;20099;-76
2022/05/13 09:57:39;;;;;;;5.88;3.47;;;22.20;96.90;;;;;;5071585;28;20029;-75
2022/05/13 10:00:19;;;;;;;3.83;3.50;;;22.30;96.20;;;;;;5071500;28;20047;-75
2022/05/13 10:02:48;;;;;;;6.10;3.97;;;22.30;96.30;;;;;;5071522;28;20012;-76
2022/05/13 10:05:14;;;;;;;4.25;3.78;;;22.50;94.80;;;;;;5071593;28;20596;-76
2022/05/13 10:07:49;;;;;;;5.55;4.13;;;22.50;94.90;;;;;;5074639;28;20046;-83
2022/05/13 10:16:25;;;;;;;3.50;3.20;;;23.10;93.10;;;;;;5074898;28;20529;-76
2022/05/13 10:19:00;;;;;;;5.90;3.60;;;23.20;92.80;;;;;;5074804;28;20471;-76
2022/05/13 10:21:31;;;;;;;8.13;4.07;;;23.40;92.90;;;;;;5075135;28;20028;-76
2022/05/13 10:24:16;;;;;;;5.05;3.85;;;23.60;93.10;;;;;;5074666;28;20083;-76
2022/05/13 10:26:45;;;;;;;5.10;3.83;;;23.70;92.60;;;;;;5074503;28;20770;-77
2022/05/13 10:29:14;;;;;;;4.38;3.97;;;23.70;91.00;;;;;;5074851;28;20024;-76
2022/05/13 10:31:43;;;;;;;4.43;3.42;;;23.70;90.90;;;;;;5074880;28;20031;-76
2022/05/13 10:34:27;;;;;;;3.78;3.40;;;23.70;90.50;;;;;;5074702;28;20023;-84
2022/05/13 10:37:02;;;;;;;5.18;3.15;;;23.70;91.50;;;;;;5074414;28;20472;-77
2022/05/13 10:39:43;;;;;;;;;;;23.70;91.00;;;;;;5075294;28;20064;-78
2022/05/13 10:42:19;;;;;;;3.42;2.92;;;23.70;90.50;;;;;;5074399;28;20011;-76
2022/05/13 10:44:55;;;;;;;3.67;3.08;;;23.70;90.30;;;;;;5074442;28;20038;-78
2022/05/13 10:47:33;;;;;;;3.67;2.85;;;23.80;89.20;;;;;;5074146;28;20033;-78
2022/05/13 10:49:59;;;;;;;4.10;3.30;;;23.70;87.90;;;;;;5074114;28;20062;-76
2022/05/13 10:52:31;;;;;;;3.83;2.88;;;23.70;88.00;;;;;;5074509;28;20375;-75
2022/05/13 10:55:03;;;;;;;3.78;2.85;;;23.60;88.40;;;;;;5074309;28;20039;-75
2022/05/13 10:57:44;;;;;;;3.35;3.03;;;23.60;88.70;;;;;;5074097;28;20120;-76
2022/05/13 11:00:18;;;;;;;4.50;3.00;;;23.60;88.50;;;;;;5072669;28;20032;-75
2022/05/13 11:02:49;;;;;;;4.05;3.33;;;23.70;90.00;;;;;;5074165;28;20029;-76
2022/05/13 11:05:33;;;;;;;3.85;3.15;;;23.70;89.40;;;;;;5074022;28;20460;-76
2022/05/13 11:08:08;;;;;;;4.10;2.85;;;23.70;87.60;;;;;;5074242;28;20112;-76
2022/05/13 11:10:37;;;;;;;3.15;2.85;;;23.70;87.60;;;;;;5073933;28;20452;-76
2022/05/13 11:13:15;;;;;;;8.27;2.72;;;23.60;87.10;;;;;;5073692;28;20032;-76
2022/05/13 11:16:01;;;;;;;3.40;2.90;;;23.70;87.80;;;;;;5072349;28;20367;-76
2022/05/13 11:18:43;;;;;;;4.20;3.78;;;23.70;89.30;;;;;;5073403;28;20055;-76
2022/05/13 11:21:46;;;;;;;3.58;2.88;;;23.80;88.00;;;;;;5073707;28;20032;-76
2022/05/13 11:27:22;;;;;;;4.43;2.80;;;23.80;86.60;;;;;;5059142;28;20040;-75
2022/05/13 11:29:54;;;;;;;4.35;2.88;;;23.90;87.10;;;;;;5073143;28;20025;-76
2022/05/13 11:32:39;;;;;;;3.00;2.80;;;24.00;87.10;;;;;;5072377;28;20414;-76
2022/05/13 11:35:25;;;;;;;4.77;2.57;;;24.00;85.70;;;;;;5073377;28;20115;-75
2022/05/13 11:37:56;;;;;;;3.35;2.90;;;24.10;87.00;;;;;;5073139;28;20063;-76
2022/05/13 11:40:29;;;;;;;3.45;2.83;;;24.20;86.60;;;;;;5072992;28;20016;-76
2022/05/13 11:43:19;;;;;;;3.05;2.33;;;24.30;85.40;;;;;;5072774;28;20129;-78
2022/05/13 11:46:03;;;;;;;2.70;2.50;;;24.30;84.90;;;;;;5071606;28;20020;-76
2022/05/13 11:48:36;;;;;;;3.25;2.13;;;24.40;85.80;;;;;;5073031;28;20430;-77
2022/05/13 11:51:15;;;;;;;5.65;2.35;;;24.30;85.60;;;;;;5072529;28;20040;-76
2022/05/13 11:53:52;;;;;;;4.22;2.70;;;24.30;84.80;;;;;;5073132;28;20028;-77
2022/05/13 11:56:29;;;;;;;3.90;3.25;;;24.40;84.30;;;;;;5072700;28;20099;-78
2022/05/13 11:59:03;;;;;;;4.00;2.67;;;24.50;83.40;;;;;;5071832;28;20383;-78
2022/05/13 12:01:38;;;;;;;5.63;2.95;;;24.50;83.40;;;;;;5073034;28;20024;-77
2022/05/13 12:04:12;;;;;;;4.05;2.80;;;24.40;84.50;;;;;;5072867;28;20059;-76
2022/05/13 12:06:50;;;;;;;3.10;2.90;;;24.50;85.30;;;;;;5072719;28;20411;-77
2022/05/13 12:09:30;;;;;;;6.70;3.20;;;24.40;83.20;;;;;;5072866;28;20056;-77
2022/05/13 12:12:15;;;;;;;2.60;2.40;;;24.40;83.60;;;;;;5072670;28;20371;-77
2022/05/13 12:14:41;;;;;;;4.50;2.88;;;24.40;83.40;;;;;;5071434;28;20157;-76
2022/05/13 12:17:24;;;;;;;3.35;3.08;;;24.50;83.60;;;;;;5072533;28;20111;-77
2022/05/13 12:20:04;;;;;;;5.07;2.92;;;24.60;84.00;;;;;;5072596;28;20032;-77
2022/05/13 12:22:30;;;;;;;2.90;2.45;;;24.50;84.80;;;;;;5071055;28;20134;-82
2022/05/13 12:25:04;;;;;;;4.20;3.30;;;24.50;84.90;;;;;;5072257;28;20104;-77
2022/05/13 12:27:43;;;;;;;3.33;3.00;;;24.40;85.40;;;;;;5072510;28;20024;-77
2022/05/13 12:30:33;;;;;;;5.90;2.80;;;24.50;84.70;;;;;;5071789;28;20050;-77
2022/05/13 12:33:24;;;;;;;3.30;3.00;;;24.50;84.10;;;;;;5072278;28;20028;-77
2022/05/13 12:39:04;;;;;;;2.65;2.45;;;24.40;86.70;;;;;;5072727;28;20039;-77
2022/05/13 12:41:59;;;;;;;3.40;3.15;;;24.30;86.60;;;;;;5072349;28;20031;-77
2022/05/13 12:44:40;;;;;;;5.38;2.70;;;24.10;87.40;;;;;;5063026;28;20044;-77
2022/05/13 12:47:19;;;;;;;3.10;2.80;;;24.10;90.20;;;;;;5070844;28;20112;-77
2022/05/13 12:49:52;;;;;;;3.97;2.78;;;24.00;90.50;;;;;;5072254;28;20111;-77
2022/05/13 12:52:26;;;;;;;5.72;2.92;;;24.00;90.50;;;;;;5072273;28;20032;-77
2022/05/13 12:54:59;;;;;;;4.47;2.33;;;24.00;90.60;;;;;;5072386;28;20154;-77
2022/05/13 12:57:31;;;;;;;4.18;2.58;;;24.00;90.60;;;;;;5071966;28;20119;-77
2022/05/13 12:59:57;;;;;;;5.20;2.50;;;23.90;90.30;;;;;;5072248;28;20032;-77
2022/05/13 13:02:28;;;;;;;2.58;2.38;;;23.80;90.80;;;;;;5072080;28;20016;-77
2022/05/13 13:05:00;;;;;;;4.32;2.92;;;23.60;92.20;;;;;;5072183;28;20029;-77
2022/05/13 13:07:28;;;;;;;2.92;2.60;;;23.50;94.20;;;;;;5071844;28;20025;-77
2022/05/13 13:09:54;;;;;;;4.72;2.95;;;23.30;94.90;;;;;;5072151;28;20029;-77
2022/05/13 13:12:25;;;;;;;3.30;2.28;;;23.30;95.10;;;;;;5072081;28;20056;-77
2022/05/13 13:15:19;;;;;;;5.45;3.03;;;23.30;94.80;;;;;;5071936;28;20056;-79
2022/05/13 13:17:58;;;;;;;3.28;2.88;;;23.30;94.20;;;;;;5070788;28;20037;-75
2022/05/13 13:20:29;;;;;;;3.20;2.22;;;23.40;93.80;;;;;;5071564;28;20029;-75
2022/05/13 13:23:05;;;;;;;2.25;2.15;;;23.50;93.20;;;;;;5070391;28;20387;-75
2022/05/13 13:25:37;;;;;;;3.38;2.17;;;23.70;92.70;;;;;;5072104;28;20017;-75
2022/05/13 13:28:10;;;;;;;3.83;2.35;;;24.00;91.20;;;;;;5071847;28;20048;-78
2022/05/13 13:30:41;;;;;;;1.80;1.70;;;24.10;86.50;;;;;;5072658;28;20056;-82